sensor_id;sensor_type;location;lat;lon;timestamp;P1;durP1;ratioP1;P2;durP2;ratioP2
76837;SDS011;65797;47.352;8.164;2022-12-31T00:01:28;1.90;;;1.20;;
76837;SDS011;65797;47.352;8.164;2022-12-31T00:03:54;1.30;;;1.20;;
76837;SDS011;65797;47.352;8.164;2022-12-31T00:06:24;1.33;;;0.97;;
76837;SDS011;65797;47.352;8.164;2022-12-31T00:08:55;1.20;;;1.10;;
76837;SDS011;65797;47.352;8.164;2022-12-31T00:11:24;1.20;;;1.10;;
76837;SDS011;65797;47.352;8.164;2022-12-31T00:13:51;1.20;;;1.10;;
76837;SDS011;65797;47.352;8.164;2022-12-31T00:16:19;1.00;;;1.00;;
76837;SDS011;65797;47.352;8.164;2022-12-31T00:18:55;1.07;;;1.03;;
76837;SDS011;65797;47.352;8.164;2022-12-31T00:21:23;2.37;;;1.37;;
76837;SDS011;65797;47.352;8.164;2022-12-31T00:23:49;1.77;;;1.30;;
76837;SDS011;65797;47.352;8.164;2022-12-31T00:26:17;1.33;;;0.90;;
76837;SDS011;65797;47.352;8.164;2022-12-31T00:28:45;2.93;;;2.33;;
76837;SDS011;65797;47.352;8.164;2022-12-31T00:31:13;1.40;;;1.30;;
76837;SDS011;65797;47.352;8.164;2022-12-31T00:33:44;0.80;;;0.80;;
76837;SDS011;65797;47.352;8.164;2022-12-31T00:36:11;1.20;;;1.10;;
76837;SDS011;65797;47.352;8.164;2022-12-31T00:38:56;0.90;;;0.90;;
76837;SDS011;65797;47.352;8.164;2022-12-31T00:41:24;0.80;;;0.80;;
76837;SDS011;65797;47.352;8.164;2022-12-31T00:43:50;0.80;;;0.80;;
76837;SDS011;65797;47.352;8.164;2022-12-31T00:46:16;2.90;;;0.97;;
76837;SDS011;65797;47.352;8.164;2022-12-31T00:48:42;0.80;;;0.80;;
76837;SDS011;65797;47.352;8.164;2022-12-31T00:51:09;1.00;;;0.90;;
76837;SDS011;65797;47.352;8.164;2022-12-31T00:53:37;0.90;;;0.90;;
76837;SDS011;65797;47.352;8.164;2022-12-31T00:56:04;2.63;;;1.00;;
76837;SDS011;65797;47.352;8.164;2022-12-31T00:58:40;0.90;;;0.90;;
76837;SDS011;65797;47.352;8.164;2022-12-31T01:01:08;0.70;;;0.70;;
76837;SDS011;65797;47.352;8.164;2022-12-31T01:03:39;1.77;;;1.00;;
76837;SDS011;65797;47.352;8.164;2022-12-31T01:06:05;1.23;;;1.10;;
76837;SDS011;65797;47.352;8.164;2022-12-31T01:08:32;0.73;;;0.73;;
76837;SDS011;65797;47.352;8.164;2022-12-31T01:10:58;0.80;;;0.80;;
76837;SDS011;65797;47.352;8.164;2022-12-31T01:13:43;0.80;;;0.80;;
76837;SDS011;65797;47.352;8.164;2022-12-31T01:16:09;0.70;;;0.70;;
76837;SDS011;65797;47.352;8.164;2022-12-31T01:18:36;0.80;;;0.80;;
76837;SDS011;65797;47.352;8.164;2022-12-31T01:21:03;1.30;;;1.20;;
76837;SDS011;65797;47.352;8.164;2022-12-31T01:23:30;2.10;;;0.70;;
76837;SDS011;65797;47.352;8.164;2022-12-31T01:25:58;1.70;;;0.80;;
76837;SDS011;65797;47.352;8.164;2022-12-31T01:28:25;1.23;;;0.80;;
76837;SDS011;65797;47.352;8.164;2022-12-31T01:30:51;1.00;;;0.90;;
76837;SDS011;65797;47.352;8.164;2022-12-31T01:33:17;0.80;;;0.80;;
76837;SDS011;65797;47.352;8.164;2022-12-31T01:35:43;0.70;;;0.70;;
76837;SDS011;65797;47.352;8.164;2022-12-31T01:38:08;2.40;;;1.00;;
76837;SDS011;65797;47.352;8.164;2022-12-31T01:40:38;0.80;;;0.70;;
76837;SDS011;65797;47.352;8.164;2022-12-31T01:43:15;0.60;;;0.60;;
76837;SDS011;65797;47.352;8.164;2022-12-31T01:45:47;1.03;;;0.93;;
76837;SDS011;65797;47.352;8.164;2022-12-31T01:48:18;0.77;;;0.77;;
76837;SDS011;65797;47.352;8.164;2022-12-31T01:50:48;2.00;;;0.70;;
76837;SDS011;65797;47.352;8.164;2022-12-31T01:53:15;0.77;;;0.77;;
76837;SDS011;65797;47.352;8.164;2022-12-31T01:55:44;1.17;;;0.73;;
76837;SDS011;65797;47.352;8.164;2022-12-31T01:58:21;0.60;;;0.60;;
76837;SDS011;65797;47.352;8.164;2022-12-31T02:01:08;0.77;;;0.77;;
76837;SDS011;65797;47.352;8.164;2022-12-31T02:03:35;0.70;;;0.70;;
76837;SDS011;65797;47.352;8.164;2022-12-31T02:08:48;0.80;;;0.80;;
76837;SDS011;65797;47.352;8.164;2022-12-31T02:11:33;1.27;;;0.90;;
76837;SDS011;65797;47.352;8.164;2022-12-31T02:14:05;0.70;;;0.70;;
76837;SDS011;65797;47.352;8.164;2022-12-31T02:28:14;3.13;;;0.87;;
76837;SDS011;65797;47.352;8.164;2022-12-31T02:31:07;1.17;;;0.70;;
76837;SDS011;65797;47.352;8.164;2022-12-31T02:33:47;3.50;;;0.70;;
76837;SDS011;65797;47.352;8.164;2022-12-31T02:36:19;1.07;;;1.07;;
76837;SDS011;65797;47.352;8.164;2022-12-31T02:38:52;0.97;;;0.80;;
76837;SDS011;65797;47.352;8.164;2022-12-31T02:41:19;0.63;;;0.63;;
76837;SDS011;65797;47.352;8.164;2022-12-31T02:44:24;0.83;;;0.67;;
76837;SDS011;65797;47.352;8.164;2022-12-31T02:53:23;0.53;;;0.53;;
76837;SDS011;65797;47.352;8.164;2022-12-31T02:56:02;1.43;;;0.60;;
76837;SDS011;65797;47.352;8.164;2022-12-31T02:58:41;0.70;;;0.70;;
76837;SDS011;65797;47.352;8.164;2022-12-31T03:01:35;1.10;;;1.00;;
76837;SDS011;65797;47.352;8.164;2022-12-31T03:04:23;0.70;;;0.70;;
76837;SDS011;65797;47.352;8.164;2022-12-31T03:06:58;2.00;;;0.60;;
76837;SDS011;65797;47.352;8.164;2022-12-31T03:09:29;0.70;;;0.70;;
76837;SDS011;65797;47.352;8.164;2022-12-31T03:11:54;0.60;;;0.60;;
76837;SDS011;65797;47.352;8.164;2022-12-31T03:14:39;0.60;;;0.60;;
76837;SDS011;65797;47.352;8.164;2022-12-31T03:17:05;0.70;;;0.70;;
76837;SDS011;65797;47.352;8.164;2022-12-31T03:19:30;1.23;;;0.70;;
76837;SDS011;65797;47.352;8.164;2022-12-31T03:22:15;1.67;;;0.80;;
76837;SDS011;65797;47.352;8.164;2022-12-31T03:25:14;0.70;;;0.70;;
76837;SDS011;65797;47.352;8.164;2022-12-31T03:28:03;0.80;;;0.80;;
76837;SDS011;65797;47.352;8.164;2022-12-31T03:30:31;1.20;;;0.90;;
76837;SDS011;65797;47.352;8.164;2022-12-31T03:32:58;0.70;;;0.70;;
76837;SDS011;65797;47.352;8.164;2022-12-31T03:35:24;0.73;;;0.70;;
76837;SDS011;65797;47.352;8.164;2022-12-31T03:37:53;1.50;;;0.70;;
76837;SDS011;65797;47.352;8.164;2022-12-31T03:40:20;3.00;;;0.90;;
76837;SDS011;65797;47.352;8.164;2022-12-31T03:42:47;0.90;;;0.80;;
76837;SDS011;65797;47.352;8.164;2022-12-31T03:45:13;0.70;;;0.70;;
76837;SDS011;65797;47.352;8.164;2022-12-31T03:47:39;4.40;;;0.80;;
76837;SDS011;65797;47.352;8.164;2022-12-31T03:50:05;2.70;;;0.90;;
76837;SDS011;65797;47.352;8.164;2022-12-31T03:52:32;0.83;;;0.83;;
76837;SDS011;65797;47.352;8.164;2022-12-31T03:54:58;0.90;;;0.80;;
76837;SDS011;65797;47.352;8.164;2022-12-31T03:57:25;0.70;;;0.70;;
76837;SDS011;65797;47.352;8.164;2022-12-31T03:59:51;0.70;;;0.70;;
76837;SDS011;65797;47.352;8.164;2022-12-31T04:02:16;0.83;;;0.83;;
76837;SDS011;65797;47.352;8.164;2022-12-31T04:04:42;1.63;;;0.80;;
76837;SDS011;65797;47.352;8.164;2022-12-31T04:07:08;0.60;;;0.60;;
76837;SDS011;65797;47.352;8.164;2022-12-31T04:09:33;0.70;;;0.70;;
76837;SDS011;65797;47.352;8.164;2022-12-31T04:11:59;1.40;;;0.80;;
76837;SDS011;65797;47.352;8.164;2022-12-31T04:14:24;1.43;;;0.80;;
76837;SDS011;65797;47.352;8.164;2022-12-31T04:16:50;0.90;;;0.90;;
76837;SDS011;65797;47.352;8.164;2022-12-31T04:19:16;1.07;;;0.77;;
76837;SDS011;65797;47.352;8.164;2022-12-31T04:21:42;0.70;;;0.70;;
76837;SDS011;65797;47.352;8.164;2022-12-31T04:24:08;0.90;;;0.73;;
76837;SDS011;65797;47.352;8.164;2022-12-31T04:26:35;0.80;;;0.80;;
76837;SDS011;65797;47.352;8.164;2022-12-31T04:29:01;1.27;;;0.80;;
76837;SDS011;65797;47.352;8.164;2022-12-31T04:31:27;0.80;;;0.80;;
76837;SDS011;65797;47.352;8.164;2022-12-31T04:33:53;0.80;;;0.80;;
76837;SDS011;65797;47.352;8.164;2022-12-31T04:36:18;1.20;;;0.63;;
76837;SDS011;65797;47.352;8.164;2022-12-31T04:38:44;1.10;;;1.00;;
76837;SDS011;65797;47.352;8.164;2022-12-31T04:41:10;1.47;;;1.00;;
76837;SDS011;65797;47.352;8.164;2022-12-31T04:43:42;1.00;;;0.90;;
76837;SDS011;65797;47.352;8.164;2022-12-31T04:46:09;0.70;;;0.70;;
76837;SDS011;65797;47.352;8.164;2022-12-31T04:48:35;0.70;;;0.70;;
76837;SDS011;65797;47.352;8.164;2022-12-31T04:51:01;0.80;;;0.80;;
76837;SDS011;65797;47.352;8.164;2022-12-31T04:53:27;0.80;;;0.80;;
76837;SDS011;65797;47.352;8.164;2022-12-31T04:55:53;0.80;;;0.80;;
76837;SDS011;65797;47.352;8.164;2022-12-31T04:58:19;0.90;;;0.90;;
76837;SDS011;65797;47.352;8.164;2022-12-31T05:00:45;1.63;;;0.80;;
76837;SDS011;65797;47.352;8.164;2022-12-31T05:03:14;0.90;;;0.80;;
76837;SDS011;65797;47.352;8.164;2022-12-31T05:05:40;1.97;;;1.30;;
76837;SDS011;65797;47.352;8.164;2022-12-31T05:08:08;0.80;;;0.77;;
76837;SDS011;65797;47.352;8.164;2022-12-31T05:10:34;1.13;;;1.00;;
76837;SDS011;65797;47.352;8.164;2022-12-31T05:13:01;2.23;;;1.07;;
76837;SDS011;65797;47.352;8.164;2022-12-31T05:15:26;0.73;;;0.73;;
76837;SDS011;65797;47.352;8.164;2022-12-31T05:17:52;0.80;;;0.80;;
76837;SDS011;65797;47.352;8.164;2022-12-31T05:20:18;0.73;;;0.73;;
76837;SDS011;65797;47.352;8.164;2022-12-31T05:22:43;1.57;;;0.90;;
76837;SDS011;65797;47.352;8.164;2022-12-31T05:25:09;0.70;;;0.70;;
76837;SDS011;65797;47.352;8.164;2022-12-31T05:27:35;1.10;;;0.70;;
76837;SDS011;65797;47.352;8.164;2022-12-31T05:30:02;1.10;;;0.70;;
76837;SDS011;65797;47.352;8.164;2022-12-31T05:32:29;0.73;;;0.73;;
76837;SDS011;65797;47.352;8.164;2022-12-31T05:34:56;1.33;;;0.80;;
76837;SDS011;65797;47.352;8.164;2022-12-31T05:37:23;0.60;;;0.60;;
76837;SDS011;65797;47.352;8.164;2022-12-31T05:39:49;1.20;;;0.80;;
76837;SDS011;65797;47.352;8.164;2022-12-31T05:42:15;0.80;;;0.70;;
76837;SDS011;65797;47.352;8.164;2022-12-31T05:44:41;0.60;;;0.60;;
76837;SDS011;65797;47.352;8.164;2022-12-31T05:47:07;0.70;;;0.70;;
76837;SDS011;65797;47.352;8.164;2022-12-31T05:49:32;1.13;;;0.77;;
76837;SDS011;65797;47.352;8.164;2022-12-31T05:51:58;0.70;;;0.70;;
76837;SDS011;65797;47.352;8.164;2022-12-31T05:54:24;0.73;;;0.73;;
76837;SDS011;65797;47.352;8.164;2022-12-31T05:56:50;0.70;;;0.70;;
76837;SDS011;65797;47.352;8.164;2022-12-31T05:59:15;0.70;;;0.70;;
76837;SDS011;65797;47.352;8.164;2022-12-31T06:01:41;0.70;;;0.70;;
76837;SDS011;65797;47.352;8.164;2022-12-31T06:04:07;1.03;;;0.70;;
76837;SDS011;65797;47.352;8.164;2022-12-31T06:06:32;2.93;;;0.77;;
76837;SDS011;65797;47.352;8.164;2022-12-31T06:08:58;0.70;;;0.70;;
76837;SDS011;65797;47.352;8.164;2022-12-31T06:11:24;1.37;;;0.90;;
76837;SDS011;65797;47.352;8.164;2022-12-31T06:13:49;1.43;;;0.90;;
76837;SDS011;65797;47.352;8.164;2022-12-31T06:16:15;0.80;;;0.80;;
76837;SDS011;65797;47.352;8.164;2022-12-31T06:18:41;0.67;;;0.67;;
76837;SDS011;65797;47.352;8.164;2022-12-31T06:21:07;0.80;;;0.80;;
76837;SDS011;65797;47.352;8.164;2022-12-31T06:23:32;0.90;;;0.90;;
76837;SDS011;65797;47.352;8.164;2022-12-31T06:26:02;0.80;;;0.80;;
76837;SDS011;65797;47.352;8.164;2022-12-31T06:28:31;0.63;;;0.60;;
76837;SDS011;65797;47.352;8.164;2022-12-31T06:31:00;0.83;;;0.73;;
76837;SDS011;65797;47.352;8.164;2022-12-31T06:33:26;0.77;;;0.77;;
76837;SDS011;65797;47.352;8.164;2022-12-31T06:35:56;1.00;;;1.00;;
76837;SDS011;65797;47.352;8.164;2022-12-31T06:38:23;0.70;;;0.70;;
76837;SDS011;65797;47.352;8.164;2022-12-31T06:40:50;0.80;;;0.80;;
76837;SDS011;65797;47.352;8.164;2022-12-31T06:43:16;0.97;;;0.80;;
76837;SDS011;65797;47.352;8.164;2022-12-31T06:45:41;0.80;;;0.80;;
76837;SDS011;65797;47.352;8.164;2022-12-31T06:48:07;0.70;;;0.70;;
76837;SDS011;65797;47.352;8.164;2022-12-31T06:50:33;0.77;;;0.77;;
76837;SDS011;65797;47.352;8.164;2022-12-31T06:52:59;0.70;;;0.70;;
76837;SDS011;65797;47.352;8.164;2022-12-31T06:55:25;0.93;;;0.93;;
76837;SDS011;65797;47.352;8.164;2022-12-31T06:57:51;1.03;;;0.90;;
76837;SDS011;65797;47.352;8.164;2022-12-31T07:00:17;1.50;;;0.97;;
76837;SDS011;65797;47.352;8.164;2022-12-31T07:05:56;2.73;;;0.70;;
76837;SDS011;65797;47.352;8.164;2022-12-31T07:08:27;0.70;;;0.70;;
76837;SDS011;65797;47.352;8.164;2022-12-31T07:11:02;0.70;;;0.70;;
76837;SDS011;65797;47.352;8.164;2022-12-31T07:16:30;2.00;;;0.70;;
76837;SDS011;65797;47.352;8.164;2022-12-31T07:21:48;0.60;;;0.60;;
76837;SDS011;65797;47.352;8.164;2022-12-31T07:24:16;0.90;;;0.70;;
76837;SDS011;65797;47.352;8.164;2022-12-31T07:29:46;1.37;;;0.97;;
76837;SDS011;65797;47.352;8.164;2022-12-31T07:35:02;0.70;;;0.70;;
76837;SDS011;65797;47.352;8.164;2022-12-31T07:40:21;1.43;;;1.00;;
76837;SDS011;65797;47.352;8.164;2022-12-31T07:47:58;1.10;;;1.00;;
76837;SDS011;65797;47.352;8.164;2022-12-31T07:50:24;1.67;;;0.97;;
76837;SDS011;65797;47.352;8.164;2022-12-31T07:52:50;1.17;;;0.77;;
76837;SDS011;65797;47.352;8.164;2022-12-31T07:55:16;2.23;;;1.80;;
76837;SDS011;65797;47.352;8.164;2022-12-31T07:57:56;1.27;;;1.17;;
76837;SDS011;65797;47.352;8.164;2022-12-31T08:00:34;4.40;;;1.87;;
76837;SDS011;65797;47.352;8.164;2022-12-31T08:03:16;2.87;;;1.60;;
76837;SDS011;65797;47.352;8.164;2022-12-31T08:08:37;1.03;;;1.03;;
76837;SDS011;65797;47.352;8.164;2022-12-31T08:14:10;1.00;;;0.90;;
76837;SDS011;65797;47.352;8.164;2022-12-31T08:16:37;1.20;;;1.10;;
76837;SDS011;65797;47.352;8.164;2022-12-31T08:19:03;7.60;;;1.10;;
76837;SDS011;65797;47.352;8.164;2022-12-31T08:21:33;1.10;;;1.10;;
76837;SDS011;65797;47.352;8.164;2022-12-31T08:26:58;2.13;;;1.70;;
76837;SDS011;65797;47.352;8.164;2022-12-31T08:37:36;4.53;;;4.10;;
76837;SDS011;65797;47.352;8.164;2022-12-31T08:43:10;1.67;;;1.57;;
76837;SDS011;65797;47.352;8.164;2022-12-31T08:45:55;1.20;;;1.10;;
76837;SDS011;65797;47.352;8.164;2022-12-31T08:50:54;0.93;;;0.93;;
76837;SDS011;65797;47.352;8.164;2022-12-31T08:53:20;1.20;;;1.10;;
76837;SDS011;65797;47.352;8.164;2022-12-31T08:55:46;3.20;;;1.17;;
76837;SDS011;65797;47.352;8.164;2022-12-31T09:01:12;1.30;;;1.20;;
76837;SDS011;65797;47.352;8.164;2022-12-31T09:03:53;1.00;;;1.00;;
76837;SDS011;65797;47.352;8.164;2022-12-31T09:06:41;0.80;;;0.80;;
76837;SDS011;65797;47.352;8.164;2022-12-31T09:12:21;1.43;;;0.80;;
76837;SDS011;65797;47.352;8.164;2022-12-31T09:17:26;0.90;;;0.90;;
76837;SDS011;65797;47.352;8.164;2022-12-31T09:19:55;1.30;;;0.90;;
76837;SDS011;65797;47.352;8.164;2022-12-31T09:22:21;0.90;;;0.90;;
76837;SDS011;65797;47.352;8.164;2022-12-31T09:24:47;3.60;;;0.80;;
76837;SDS011;65797;47.352;8.164;2022-12-31T09:27:14;0.80;;;0.80;;
76837;SDS011;65797;47.352;8.164;2022-12-31T09:29:50;0.90;;;0.90;;
76837;SDS011;65797;47.352;8.164;2022-12-31T09:35:41;0.90;;;0.90;;
76837;SDS011;65797;47.352;8.164;2022-12-31T09:38:27;1.33;;;0.80;;
76837;SDS011;65797;47.352;8.164;2022-12-31T09:44:14;0.80;;;0.70;;
76837;SDS011;65797;47.352;8.164;2022-12-31T09:55:39;1.00;;;1.00;;
76837;SDS011;65797;47.352;8.164;2022-12-31T10:06:45;1.23;;;1.13;;
76837;SDS011;65797;47.352;8.164;2022-12-31T10:09:38;1.20;;;1.10;;
76837;SDS011;65797;47.352;8.164;2022-12-31T10:12:35;1.37;;;0.90;;
76837;SDS011;65797;47.352;8.164;2022-12-31T10:15:35;1.00;;;0.80;;
76837;SDS011;65797;47.352;8.164;2022-12-31T10:18:17;1.63;;;1.00;;
76837;SDS011;65797;47.352;8.164;2022-12-31T10:21:17;0.97;;;0.80;;
76837;SDS011;65797;47.352;8.164;2022-12-31T10:32:25;1.30;;;0.80;;
76837;SDS011;65797;47.352;8.164;2022-12-31T10:37:31;0.90;;;0.90;;
76837;SDS011;65797;47.352;8.164;2022-12-31T10:40:10;1.00;;;0.70;;
76837;SDS011;65797;47.352;8.164;2022-12-31T11:00:27;2.30;;;0.97;;
76837;SDS011;65797;47.352;8.164;2022-12-31T11:13:31;0.70;;;0.70;;
76837;SDS011;65797;47.352;8.164;2022-12-31T11:27:37;0.80;;;0.80;;
76837;SDS011;65797;47.352;8.164;2022-12-31T11:38:50;1.00;;;0.90;;
76837;SDS011;65797;47.352;8.164;2022-12-31T11:41:29;1.13;;;0.90;;
76837;SDS011;65797;47.352;8.164;2022-12-31T11:44:02;0.80;;;0.80;;
76837;SDS011;65797;47.352;8.164;2022-12-31T11:49:59;1.47;;;0.90;;
76837;SDS011;65797;47.352;8.164;2022-12-31T11:52:50;0.70;;;0.70;;
76837;SDS011;65797;47.352;8.164;2022-12-31T11:58:33;1.80;;;0.70;;
76837;SDS011;65797;47.352;8.164;2022-12-31T12:03:29;1.10;;;0.90;;
76837;SDS011;65797;47.352;8.164;2022-12-31T12:05:56;0.70;;;0.70;;
76837;SDS011;65797;47.352;8.164;2022-12-31T12:08:23;0.87;;;0.83;;
76837;SDS011;65797;47.352;8.164;2022-12-31T12:11:01;1.20;;;1.10;;
76837;SDS011;65797;47.352;8.164;2022-12-31T12:13:33;1.03;;;0.90;;
76837;SDS011;65797;47.352;8.164;2022-12-31T12:15:59;1.40;;;1.30;;
76837;SDS011;65797;47.352;8.164;2022-12-31T12:23:38;1.20;;;1.10;;
76837;SDS011;65797;47.352;8.164;2022-12-31T12:26:05;1.37;;;1.03;;
76837;SDS011;65797;47.352;8.164;2022-12-31T12:39:30;1.23;;;1.13;;
76837;SDS011;65797;47.352;8.164;2022-12-31T12:42:15;1.20;;;1.10;;
76837;SDS011;65797;47.352;8.164;2022-12-31T12:44:41;1.50;;;1.10;;
76837;SDS011;65797;47.352;8.164;2022-12-31T12:47:07;8.90;;;1.40;;
76837;SDS011;65797;47.352;8.164;2022-12-31T12:49:40;1.50;;;1.40;;
76837;SDS011;65797;47.352;8.164;2022-12-31T13:00:21;1.47;;;1.20;;
76837;SDS011;65797;47.352;8.164;2022-12-31T13:06:16;4.70;;;1.10;;
76837;SDS011;65797;47.352;8.164;2022-12-31T13:14:13;1.63;;;1.30;;
76837;SDS011;65797;47.352;8.164;2022-12-31T13:19:37;0.90;;;0.90;;
76837;SDS011;65797;47.352;8.164;2022-12-31T13:27:44;1.00;;;1.00;;
76837;SDS011;65797;47.352;8.164;2022-12-31T13:30:13;0.80;;;0.80;;
76837;SDS011;65797;47.352;8.164;2022-12-31T13:32:43;2.60;;;1.17;;
76837;SDS011;65797;47.352;8.164;2022-12-31T13:40:59;4.20;;;1.33;;
76837;SDS011;65797;47.352;8.164;2022-12-31T13:51:45;0.80;;;0.80;;
76837;SDS011;65797;47.352;8.164;2022-12-31T13:56:40;1.70;;;0.93;;
76837;SDS011;65797;47.352;8.164;2022-12-31T13:59:24;2.10;;;1.30;;
76837;SDS011;65797;47.352;8.164;2022-12-31T14:01:58;1.57;;;1.10;;
76837;SDS011;65797;47.352;8.164;2022-12-31T14:04:45;2.10;;;1.43;;
76837;SDS011;65797;47.352;8.164;2022-12-31T14:07:58;1.63;;;1.23;;
76837;SDS011;65797;47.352;8.164;2022-12-31T14:10:10;1.93;;;1.70;;
76837;SDS011;65797;47.352;8.164;2022-12-31T14:12:50;1.10;;;1.10;;
76837;SDS011;65797;47.352;8.164;2022-12-31T14:20:45;1.73;;;1.13;;
76837;SDS011;65797;47.352;8.164;2022-12-31T14:26:00;0.70;;;0.70;;
76837;SDS011;65797;47.352;8.164;2022-12-31T14:28:37;0.70;;;0.70;;
76837;SDS011;65797;47.352;8.164;2022-12-31T14:31:14;0.90;;;0.90;;
76837;SDS011;65797;47.352;8.164;2022-12-31T14:34:03;1.37;;;1.27;;
76837;SDS011;65797;47.352;8.164;2022-12-31T14:42:29;7.47;;;1.20;;
76837;SDS011;65797;47.352;8.164;2022-12-31T14:50:28;1.57;;;1.00;;
76837;SDS011;65797;47.352;8.164;2022-12-31T14:53:05;4.63;;;1.17;;
76837;SDS011;65797;47.352;8.164;2022-12-31T14:55:37;5.03;;;1.10;;
76837;SDS011;65797;47.352;8.164;2022-12-31T14:58:20;1.63;;;1.00;;
76837;SDS011;65797;47.352;8.164;2022-12-31T15:11:39;1.43;;;1.27;;
76837;SDS011;65797;47.352;8.164;2022-12-31T15:22:59;1.83;;;1.60;;
76837;SDS011;65797;47.352;8.164;2022-12-31T15:25:32;2.10;;;1.50;;
76837;SDS011;65797;47.352;8.164;2022-12-31T15:28:02;9.23;;;3.70;;
76837;SDS011;65797;47.352;8.164;2022-12-31T15:33:08;3.70;;;2.00;;
76837;SDS011;65797;47.352;8.164;2022-12-31T15:35:54;1.87;;;1.77;;
76837;SDS011;65797;47.352;8.164;2022-12-31T15:38:29;2.57;;;2.37;;
76837;SDS011;65797;47.352;8.164;2022-12-31T15:40:58;3.30;;;2.20;;
76837;SDS011;65797;47.352;8.164;2022-12-31T15:46:21;2.03;;;1.83;;
76837;SDS011;65797;47.352;8.164;2022-12-31T15:48:51;4.60;;;2.70;;
76837;SDS011;65797;47.352;8.164;2022-12-31T15:51:24;6.73;;;3.93;;
76837;SDS011;65797;47.352;8.164;2022-12-31T15:53:53;4.63;;;3.00;;
76837;SDS011;65797;47.352;8.164;2022-12-31T15:56:31;4.33;;;3.07;;
76837;SDS011;65797;47.352;8.164;2022-12-31T15:58:58;4.83;;;2.90;;
76837;SDS011;65797;47.352;8.164;2022-12-31T16:01:35;4.77;;;2.60;;
76837;SDS011;65797;47.352;8.164;2022-12-31T16:04:15;4.10;;;2.63;;
76837;SDS011;65797;47.352;8.164;2022-12-31T16:06:44;4.80;;;2.47;;
76837;SDS011;65797;47.352;8.164;2022-12-31T16:09:18;3.00;;;2.70;;
76837;SDS011;65797;47.352;8.164;2022-12-31T16:11:44;3.70;;;2.50;;
76837;SDS011;65797;47.352;8.164;2022-12-31T16:14:19;3.00;;;2.47;;
76837;SDS011;65797;47.352;8.164;2022-12-31T16:17:04;5.30;;;2.70;;
76837;SDS011;65797;47.352;8.164;2022-12-31T16:19:34;1.53;;;1.43;;
76837;SDS011;65797;47.352;8.164;2022-12-31T16:22:07;2.00;;;1.47;;
76837;SDS011;65797;47.352;8.164;2022-12-31T16:24:41;2.40;;;2.10;;
76837;SDS011;65797;47.352;8.164;2022-12-31T16:27:08;2.40;;;2.20;;
76837;SDS011;65797;47.352;8.164;2022-12-31T16:29:44;4.70;;;2.20;;
76837;SDS011;65797;47.352;8.164;2022-12-31T16:32:14;2.13;;;1.93;;
76837;SDS011;65797;47.352;8.164;2022-12-31T16:34:41;2.20;;;1.80;;
76837;SDS011;65797;47.352;8.164;2022-12-31T16:37:17;1.90;;;1.70;;
76837;SDS011;65797;47.352;8.164;2022-12-31T16:42:19;3.47;;;1.33;;
76837;SDS011;65797;47.352;8.164;2022-12-31T16:44:47;1.37;;;1.20;;
76837;SDS011;65797;47.352;8.164;2022-12-31T16:47:19;1.97;;;1.80;;
76837;SDS011;65797;47.352;8.164;2022-12-31T16:50:04;3.03;;;1.60;;
76837;SDS011;65797;47.352;8.164;2022-12-31T16:52:42;1.20;;;1.20;;
76837;SDS011;65797;47.352;8.164;2022-12-31T16:55:20;1.63;;;1.30;;
76837;SDS011;65797;47.352;8.164;2022-12-31T16:57:50;1.70;;;1.57;;
76837;SDS011;65797;47.352;8.164;2022-12-31T17:00:20;1.50;;;1.40;;
76837;SDS011;65797;47.352;8.164;2022-12-31T17:03:33;2.93;;;1.40;;
76837;SDS011;65797;47.352;8.164;2022-12-31T17:06:21;1.60;;;1.43;;
76837;SDS011;65797;47.352;8.164;2022-12-31T17:08:43;2.60;;;1.73;;
76837;SDS011;65797;47.352;8.164;2022-12-31T17:16:34;2.80;;;2.07;;
76837;SDS011;65797;47.352;8.164;2022-12-31T17:19:02;3.00;;;2.70;;
76837;SDS011;65797;47.352;8.164;2022-12-31T17:21:29;4.20;;;2.97;;
76837;SDS011;65797;47.352;8.164;2022-12-31T17:24:00;3.50;;;2.80;;
76837;SDS011;65797;47.352;8.164;2022-12-31T17:26:31;2.00;;;1.83;;
76837;SDS011;65797;47.352;8.164;2022-12-31T17:31:37;5.43;;;3.90;;
76837;SDS011;65797;47.352;8.164;2022-12-31T17:36:39;4.03;;;3.27;;
76837;SDS011;65797;47.352;8.164;2022-12-31T17:39:15;4.83;;;3.60;;
76837;SDS011;65797;47.352;8.164;2022-12-31T17:41:45;6.53;;;4.17;;
76837;SDS011;65797;47.352;8.164;2022-12-31T17:44:20;3.70;;;3.20;;
76837;SDS011;65797;47.352;8.164;2022-12-31T17:46:49;4.90;;;3.23;;
76837;SDS011;65797;47.352;8.164;2022-12-31T17:49:15;2.87;;;2.37;;
76837;SDS011;65797;47.352;8.164;2022-12-31T17:51:45;4.10;;;2.93;;
76837;SDS011;65797;47.352;8.164;2022-12-31T17:54:15;3.10;;;2.80;;
76837;SDS011;65797;47.352;8.164;2022-12-31T17:56:42;4.50;;;3.33;;
76837;SDS011;65797;47.352;8.164;2022-12-31T17:59:15;8.10;;;3.93;;
76837;SDS011;65797;47.352;8.164;2022-12-31T18:01:43;5.80;;;2.97;;
76837;SDS011;65797;47.352;8.164;2022-12-31T18:04:15;5.20;;;3.10;;
76837;SDS011;65797;47.352;8.164;2022-12-31T18:06:42;6.93;;;3.90;;
76837;SDS011;65797;47.352;8.164;2022-12-31T18:09:09;3.67;;;3.30;;
76837;SDS011;65797;47.352;8.164;2022-12-31T18:11:35;4.40;;;3.50;;
76837;SDS011;65797;47.352;8.164;2022-12-31T18:14:02;6.20;;;4.33;;
76837;SDS011;65797;47.352;8.164;2022-12-31T18:16:28;6.23;;;4.10;;
76837;SDS011;65797;47.352;8.164;2022-12-31T18:18:58;6.43;;;4.73;;
76837;SDS011;65797;47.352;8.164;2022-12-31T18:21:28;5.50;;;4.07;;
76837;SDS011;65797;47.352;8.164;2022-12-31T18:23:56;6.23;;;3.90;;
76837;SDS011;65797;47.352;8.164;2022-12-31T18:26:23;4.70;;;3.93;;
76837;SDS011;65797;47.352;8.164;2022-12-31T18:28:50;5.00;;;4.03;;
76837;SDS011;65797;47.352;8.164;2022-12-31T18:31:23;6.40;;;4.57;;
76837;SDS011;65797;47.352;8.164;2022-12-31T18:33:52;6.83;;;3.83;;
76837;SDS011;65797;47.352;8.164;2022-12-31T18:36:19;6.70;;;4.80;;
76837;SDS011;65797;47.352;8.164;2022-12-31T18:38:46;16.33;;;7.80;;
76837;SDS011;65797;47.352;8.164;2022-12-31T18:41:19;12.90;;;8.37;;
76837;SDS011;65797;47.352;8.164;2022-12-31T18:43:47;19.30;;;9.90;;
76837;SDS011;65797;47.352;8.164;2022-12-31T18:46:15;28.43;;;16.00;;
76837;SDS011;65797;47.352;8.164;2022-12-31T18:48:47;170.47;;;115.37;;
76837;SDS011;65797;47.352;8.164;2022-12-31T18:51:17;97.73;;;53.33;;
76837;SDS011;65797;47.352;8.164;2022-12-31T18:53:44;165.10;;;97.70;;
76837;SDS011;65797;47.352;8.164;2022-12-31T18:56:12;356.07;;;214.93;;
76837;SDS011;65797;47.352;8.164;2022-12-31T18:58:40;222.67;;;129.43;;
76837;SDS011;65797;47.352;8.164;2022-12-31T19:03:56;113.13;;;62.33;;
76837;SDS011;65797;47.352;8.164;2022-12-31T19:06:24;127.47;;;87.23;;
76837;SDS011;65797;47.352;8.164;2022-12-31T19:08:50;136.90;;;81.17;;
76837;SDS011;65797;47.352;8.164;2022-12-31T19:11:16;100.53;;;57.63;;
76837;SDS011;65797;47.352;8.164;2022-12-31T19:13:43;107.27;;;60.80;;
76837;SDS011;65797;47.352;8.164;2022-12-31T19:16:09;270.43;;;175.27;;
76837;SDS011;65797;47.352;8.164;2022-12-31T19:18:35;114.43;;;74.67;;
76837;SDS011;65797;47.352;8.164;2022-12-31T19:21:02;61.97;;;41.70;;
76837;SDS011;65797;47.352;8.164;2022-12-31T19:23:28;69.90;;;49.43;;
76837;SDS011;65797;47.352;8.164;2022-12-31T19:25:54;118.10;;;76.73;;
76837;SDS011;65797;47.352;8.164;2022-12-31T19:28:24;194.90;;;111.33;;
76837;SDS011;65797;47.352;8.164;2022-12-31T19:30:51;128.83;;;86.37;;
76837;SDS011;65797;47.352;8.164;2022-12-31T19:33:17;94.73;;;58.67;;
76837;SDS011;65797;47.352;8.164;2022-12-31T19:35:43;61.40;;;40.23;;
76837;SDS011;65797;47.352;8.164;2022-12-31T19:38:23;54.03;;;35.50;;
76837;SDS011;65797;47.352;8.164;2022-12-31T19:40:51;65.83;;;36.07;;
76837;SDS011;65797;47.352;8.164;2022-12-31T19:43:18;75.33;;;43.63;;
76837;SDS011;65797;47.352;8.164;2022-12-31T19:45:45;79.17;;;44.87;;
76837;SDS011;65797;47.352;8.164;2022-12-31T19:48:15;98.30;;;56.20;;
76837;SDS011;65797;47.352;8.164;2022-12-31T19:50:46;97.17;;;58.33;;
76837;SDS011;65797;47.352;8.164;2022-12-31T19:53:15;84.80;;;50.63;;